KMIW/MIW METAR and TAF weather

Enter ICAO airport designator
Station Type Date Time Source
KMIW METAR 2022/01/23 12:53 UTC NOAA

KMIW 231253Z AUTO 34012KT 10SM CLR M16/M18 A3010 RMK AO2 SLP213 T11561183 $


Station Type Date Time Source
KMIW Decoded METAR 2022/01/23 12:53 UTC NOAA

MARSHALLTOWN MUNICIPAL AIRPORT , IA, United States (KMIW) 42-07N 92-55W 296M
Jan 23, 2022 - 07:53 AM EST / 2022.01.23 1253 UTC
Wind: from the NNW (340 degrees) at 14 MPH (12 KT):0
Visibility: 10 mile(s):0
Sky conditions: clear
Temperature: 3.9 F (-15.6 C)
Windchill: -13 F (-25 C):2
Dew Point: -0.9 F (-18.3 C)
Relative Humidity: 79%
Pressure (altimeter): 30.1 in. Hg (1019 hPa)
ob: KMIW 231253Z AUTO 34012KT 10SM CLR M16/M18 A3010 RMK AO2 SLP213 T11561183
cycle: 13

Station Type Date Time Source
KMIW TAF UTC NOAA

Error!

Example: see airport list